Portada
METAR-TAF:

METAR-TAF

Aeroports :

Statesboro-Bulloch County Airport

Statesboro, Geòrgia, Estats Units d'Amèrica

latitud: 32-28-59N, longitud: 081-44-14W, altitud: 57 m

Observació

L'informe es va fer fa 28 minuts, a les 00:35 UTC
Vent 3 kt del Oest/Nord-Oest
Temperatura 24°C
Humitat 83%
Pressió 1018 hPa
Visibilitat: 16.1 km
Núvols disperses a una alçada de 11000 ft

METAR: KTBR 110035Z AUTO 29003KT 10SM SCT110 24/21 A3005 RMK AO2 T02380206

Hora: 21:03 (01:03 UTC)


TAF: manca

Observacions i pronòstics meteorològics de més de 4000 aeroports (METAR i TAF).

Les estacions disponibles són els punts grocs i vermells al mapa.

Posi el ratolí al punt desitjat per veure el nom de l'estació.

Feu clic per veure les observacions i els pronòstics meteorològics.

Per canviar el mapa: feu clic els botons verds amb una creu de color negre per apropar; al botó verd amb un guió per allunyar la imatge; o en les fletxes verdes per a mapes adjacents.


METAR-TAF: